sensor_id;sensor_type;location;lat;lon;timestamp;P1;durP1;ratioP1;P2;durP2;ratioP2
40755;SDS011;26461;45.630;9.418;2022-12-18T00:02:31;11.27;;;9.50;;
40755;SDS011;26461;45.630;9.418;2022-12-18T00:05:50;13.45;;;11.60;;
40755;SDS011;26461;45.630;9.418;2022-12-18T00:09:02;9.75;;;5.97;;
40755;SDS011;26461;45.630;9.418;2022-12-18T00:12:12;11.02;;;8.95;;
40755;SDS011;26461;45.630;9.418;2022-12-18T00:15:19;12.77;;;9.38;;
40755;SDS011;26461;45.630;9.418;2022-12-18T00:18:30;14.15;;;7.30;;
40755;SDS011;26461;45.630;9.418;2022-12-18T00:21:41;12.20;;;7.82;;
40755;SDS011;26461;45.630;9.418;2022-12-18T00:24:55;14.10;;;7.35;;
40755;SDS011;26461;45.630;9.418;2022-12-18T00:28:02;17.33;;;10.52;;
40755;SDS011;26461;45.630;9.418;2022-12-18T00:31:14;16.38;;;10.25;;
40755;SDS011;26461;45.630;9.418;2022-12-18T00:34:30;10.63;;;6.22;;
40755;SDS011;26461;45.630;9.418;2022-12-18T00:37:45;19.95;;;8.38;;
40755;SDS011;26461;45.630;9.418;2022-12-18T00:40:57;10.50;;;9.95;;
40755;SDS011;26461;45.630;9.418;2022-12-18T00:44:18;27.23;;;9.15;;
40755;SDS011;26461;45.630;9.418;2022-12-18T00:47:28;17.20;;;10.45;;
40755;SDS011;26461;45.630;9.418;2022-12-18T00:50:38;11.02;;;10.40;;
40755;SDS011;26461;45.630;9.418;2022-12-18T00:53:48;11.15;;;6.93;;
40755;SDS011;26461;45.630;9.418;2022-12-18T00:56:58;13.48;;;8.65;;
40755;SDS011;26461;45.630;9.418;2022-12-18T01:00:10;12.45;;;6.85;;
40755;SDS011;26461;45.630;9.418;2022-12-18T01:03:21;11.65;;;11.05;;
40755;SDS011;26461;45.630;9.418;2022-12-18T01:06:31;8.88;;;7.75;;
40755;SDS011;26461;45.630;9.418;2022-12-18T01:09:42;13.65;;;7.57;;
40755;SDS011;26461;45.630;9.418;2022-12-18T01:12:49;13.98;;;7.55;;
40755;SDS011;26461;45.630;9.418;2022-12-18T01:15:55;15.73;;;10.55;;
40755;SDS011;26461;45.630;9.418;2022-12-18T01:19:05;15.63;;;8.55;;
40755;SDS011;26461;45.630;9.418;2022-12-18T01:22:17;14.45;;;5.38;;
40755;SDS011;26461;45.630;9.418;2022-12-18T01:25:28;11.55;;;8.25;;
40755;SDS011;26461;45.630;9.418;2022-12-18T01:28:41;9.63;;;7.45;;
40755;SDS011;26461;45.630;9.418;2022-12-18T01:31:54;14.27;;;8.98;;
40755;SDS011;26461;45.630;9.418;2022-12-18T01:35:08;11.35;;;6.68;;
40755;SDS011;26461;45.630;9.418;2022-12-18T01:38:13;10.50;;;6.65;;
40755;SDS011;26461;45.630;9.418;2022-12-18T01:41:24;7.75;;;6.13;;
40755;SDS011;26461;45.630;9.418;2022-12-18T01:44:59;21.20;;;6.93;;
40755;SDS011;26461;45.630;9.418;2022-12-18T01:48:20;9.95;;;7.03;;
40755;SDS011;26461;45.630;9.418;2022-12-18T01:51:30;9.85;;;7.18;;
40755;SDS011;26461;45.630;9.418;2022-12-18T01:54:40;11.32;;;6.80;;
40755;SDS011;26461;45.630;9.418;2022-12-18T01:57:45;11.90;;;7.13;;
40755;SDS011;26461;45.630;9.418;2022-12-18T02:00:56;10.10;;;7.00;;
40755;SDS011;26461;45.630;9.418;2022-12-18T02:04:20;11.10;;;7.10;;
40755;SDS011;26461;45.630;9.418;2022-12-18T02:07:37;9.70;;;4.45;;
40755;SDS011;26461;45.630;9.418;2022-12-18T02:18:18;7.47;;;4.57;;
40755;SDS011;26461;45.630;9.418;2022-12-18T02:21:46;5.88;;;3.00;;
40755;SDS011;26461;45.630;9.418;2022-12-18T02:25:21;7.63;;;6.35;;
40755;SDS011;26461;45.630;9.418;2022-12-18T02:28:41;10.38;;;5.93;;
40755;SDS011;26461;45.630;9.418;2022-12-18T02:31:56;13.77;;;6.72;;
40755;SDS011;26461;45.630;9.418;2022-12-18T02:35:12;13.50;;;4.20;;
40755;SDS011;26461;45.630;9.418;2022-12-18T02:38:28;14.30;;;5.85;;
40755;SDS011;26461;45.630;9.418;2022-12-18T02:41:48;9.00;;;6.65;;
40755;SDS011;26461;45.630;9.418;2022-12-18T02:44:57;5.22;;;4.93;;
40755;SDS011;26461;45.630;9.418;2022-12-18T02:48:07;9.27;;;4.20;;
40755;SDS011;26461;45.630;9.418;2022-12-18T02:51:36;9.77;;;5.05;;
40755;SDS011;26461;45.630;9.418;2022-12-18T02:54:55;10.30;;;4.85;;
40755;SDS011;26461;45.630;9.418;2022-12-18T03:01:41;7.20;;;5.10;;
40755;SDS011;26461;45.630;9.418;2022-12-18T03:05:01;6.32;;;3.50;;
40755;SDS011;26461;45.630;9.418;2022-12-18T03:08:17;12.43;;;6.13;;
40755;SDS011;26461;45.630;9.418;2022-12-18T03:11:28;5.75;;;4.55;;
40755;SDS011;26461;45.630;9.418;2022-12-18T03:18:35;9.52;;;6.10;;
40755;SDS011;26461;45.630;9.418;2022-12-18T03:21:53;9.07;;;5.82;;
40755;SDS011;26461;45.630;9.418;2022-12-18T03:25:03;9.00;;;4.55;;
40755;SDS011;26461;45.630;9.418;2022-12-18T03:28:14;10.57;;;5.35;;
40755;SDS011;26461;45.630;9.418;2022-12-18T03:31:23;8.25;;;4.97;;
40755;SDS011;26461;45.630;9.418;2022-12-18T03:34:38;6.80;;;3.78;;
40755;SDS011;26461;45.630;9.418;2022-12-18T03:37:50;11.10;;;6.88;;
40755;SDS011;26461;45.630;9.418;2022-12-18T03:41:03;9.25;;;3.38;;
40755;SDS011;26461;45.630;9.418;2022-12-18T03:44:45;13.52;;;7.25;;
40755;SDS011;26461;45.630;9.418;2022-12-18T03:48:01;7.15;;;5.20;;
40755;SDS011;26461;45.630;9.418;2022-12-18T03:54:45;10.38;;;6.80;;
40755;SDS011;26461;45.630;9.418;2022-12-18T03:57:57;9.43;;;4.32;;
40755;SDS011;26461;45.630;9.418;2022-12-18T04:01:20;12.30;;;6.32;;
40755;SDS011;26461;45.630;9.418;2022-12-18T04:04:29;11.60;;;8.45;;
40755;SDS011;26461;45.630;9.418;2022-12-18T04:07:41;7.82;;;5.18;;
40755;SDS011;26461;45.630;9.418;2022-12-18T04:10:53;9.40;;;7.93;;
40755;SDS011;26461;45.630;9.418;2022-12-18T04:14:01;11.02;;;6.35;;
40755;SDS011;26461;45.630;9.418;2022-12-18T04:17:09;11.38;;;6.68;;
40755;SDS011;26461;45.630;9.418;2022-12-18T04:20:36;16.77;;;6.10;;
40755;SDS011;26461;45.630;9.418;2022-12-18T04:23:44;8.70;;;4.90;;
40755;SDS011;26461;45.630;9.418;2022-12-18T04:26:56;8.02;;;3.92;;
40755;SDS011;26461;45.630;9.418;2022-12-18T04:30:10;4.97;;;4.40;;
40755;SDS011;26461;45.630;9.418;2022-12-18T04:33:22;8.00;;;5.00;;
40755;SDS011;26461;45.630;9.418;2022-12-18T04:36:28;12.85;;;7.20;;
40755;SDS011;26461;45.630;9.418;2022-12-18T04:39:33;10.10;;;4.40;;
40755;SDS011;26461;45.630;9.418;2022-12-18T04:42:47;12.38;;;5.70;;
40755;SDS011;26461;45.630;9.418;2022-12-18T04:46:00;10.02;;;6.70;;
40755;SDS011;26461;45.630;9.418;2022-12-18T04:49:14;10.43;;;6.28;;
40755;SDS011;26461;45.630;9.418;2022-12-18T04:52:24;8.55;;;5.80;;
40755;SDS011;26461;45.630;9.418;2022-12-18T04:55:29;7.03;;;4.25;;
40755;SDS011;26461;45.630;9.418;2022-12-18T04:58:40;9.70;;;4.90;;
40755;SDS011;26461;45.630;9.418;2022-12-18T05:01:46;9.15;;;4.88;;
40755;SDS011;26461;45.630;9.418;2022-12-18T05:04:58;9.88;;;5.32;;
40755;SDS011;26461;45.630;9.418;2022-12-18T05:08:05;7.47;;;3.05;;
40755;SDS011;26461;45.630;9.418;2022-12-18T05:11:18;7.85;;;5.55;;
40755;SDS011;26461;45.630;9.418;2022-12-18T05:14:23;9.40;;;5.45;;
40755;SDS011;26461;45.630;9.418;2022-12-18T05:17:38;10.57;;;5.57;;
40755;SDS011;26461;45.630;9.418;2022-12-18T05:20:44;7.55;;;4.28;;
40755;SDS011;26461;45.630;9.418;2022-12-18T05:23:52;9.88;;;5.45;;
40755;SDS011;26461;45.630;9.418;2022-12-18T05:27:03;16.98;;;9.18;;
40755;SDS011;26461;45.630;9.418;2022-12-18T05:30:15;10.75;;;7.45;;
40755;SDS011;26461;45.630;9.418;2022-12-18T05:33:22;15.10;;;8.75;;
40755;SDS011;26461;45.630;9.418;2022-12-18T05:36:50;8.02;;;3.80;;
40755;SDS011;26461;45.630;9.418;2022-12-18T05:40:02;10.57;;;4.15;;
40755;SDS011;26461;45.630;9.418;2022-12-18T05:43:11;11.15;;;5.93;;
40755;SDS011;26461;45.630;9.418;2022-12-18T05:46:18;7.72;;;3.72;;
40755;SDS011;26461;45.630;9.418;2022-12-18T05:49:24;13.25;;;9.55;;
40755;SDS011;26461;45.630;9.418;2022-12-18T05:52:33;12.07;;;6.68;;
40755;SDS011;26461;45.630;9.418;2022-12-18T05:55:39;14.93;;;5.85;;
40755;SDS011;26461;45.630;9.418;2022-12-18T05:58:47;11.80;;;4.65;;
40755;SDS011;26461;45.630;9.418;2022-12-18T06:02:00;9.35;;;6.38;;
40755;SDS011;26461;45.630;9.418;2022-12-18T06:05:09;6.68;;;4.18;;
40755;SDS011;26461;45.630;9.418;2022-12-18T06:08:18;10.90;;;4.75;;
40755;SDS011;26461;45.630;9.418;2022-12-18T06:11:26;9.57;;;4.97;;
40755;SDS011;26461;45.630;9.418;2022-12-18T06:14:32;7.68;;;3.80;;
40755;SDS011;26461;45.630;9.418;2022-12-18T06:17:37;7.68;;;4.05;;
40755;SDS011;26461;45.630;9.418;2022-12-18T06:20:54;11.52;;;5.25;;
40755;SDS011;26461;45.630;9.418;2022-12-18T06:24:03;9.45;;;5.15;;
40755;SDS011;26461;45.630;9.418;2022-12-18T06:27:11;8.45;;;5.32;;
40755;SDS011;26461;45.630;9.418;2022-12-18T06:30:23;9.32;;;5.63;;
40755;SDS011;26461;45.630;9.418;2022-12-18T06:33:28;15.52;;;6.97;;
40755;SDS011;26461;45.630;9.418;2022-12-18T06:36:38;8.75;;;5.93;;
40755;SDS011;26461;45.630;9.418;2022-12-18T06:39:44;19.98;;;7.38;;
40755;SDS011;26461;45.630;9.418;2022-12-18T06:42:55;11.07;;;6.03;;
40755;SDS011;26461;45.630;9.418;2022-12-18T06:46:02;14.40;;;5.45;;
40755;SDS011;26461;45.630;9.418;2022-12-18T06:49:12;13.57;;;5.93;;
40755;SDS011;26461;45.630;9.418;2022-12-18T06:52:25;9.50;;;5.07;;
40755;SDS011;26461;45.630;9.418;2022-12-18T06:55:32;7.50;;;6.28;;
40755;SDS011;26461;45.630;9.418;2022-12-18T06:58:39;13.27;;;8.48;;
40755;SDS011;26461;45.630;9.418;2022-12-18T07:01:49;11.13;;;5.28;;
40755;SDS011;26461;45.630;9.418;2022-12-18T07:04:59;7.82;;;7.22;;
40755;SDS011;26461;45.630;9.418;2022-12-18T07:08:08;11.15;;;6.20;;
40755;SDS011;26461;45.630;9.418;2022-12-18T07:11:18;12.70;;;9.50;;
40755;SDS011;26461;45.630;9.418;2022-12-18T07:14:26;10.38;;;9.70;;
40755;SDS011;26461;45.630;9.418;2022-12-18T07:17:35;11.32;;;6.50;;
40755;SDS011;26461;45.630;9.418;2022-12-18T07:20:44;12.32;;;6.20;;
40755;SDS011;26461;45.630;9.418;2022-12-18T07:23:57;20.58;;;11.18;;
40755;SDS011;26461;45.630;9.418;2022-12-18T07:27:10;10.10;;;6.57;;
40755;SDS011;26461;45.630;9.418;2022-12-18T07:30:19;10.93;;;8.32;;
40755;SDS011;26461;45.630;9.418;2022-12-18T07:33:27;17.58;;;7.45;;
40755;SDS011;26461;45.630;9.418;2022-12-18T07:36:39;10.52;;;7.32;;
40755;SDS011;26461;45.630;9.418;2022-12-18T07:39:47;10.48;;;9.98;;
40755;SDS011;26461;45.630;9.418;2022-12-18T07:42:59;12.10;;;9.23;;
40755;SDS011;26461;45.630;9.418;2022-12-18T07:46:08;15.38;;;8.57;;
40755;SDS011;26461;45.630;9.418;2022-12-18T07:49:24;24.95;;;6.20;;
40755;SDS011;26461;45.630;9.418;2022-12-18T07:52:31;13.52;;;7.40;;
40755;SDS011;26461;45.630;9.418;2022-12-18T07:55:38;16.48;;;10.52;;
40755;SDS011;26461;45.630;9.418;2022-12-18T07:58:46;11.88;;;7.57;;
40755;SDS011;26461;45.630;9.418;2022-12-18T08:01:52;20.35;;;8.50;;
40755;SDS011;26461;45.630;9.418;2022-12-18T08:05:07;8.93;;;6.72;;
40755;SDS011;26461;45.630;9.418;2022-12-18T08:08:15;15.88;;;8.85;;
40755;SDS011;26461;45.630;9.418;2022-12-18T08:11:26;14.32;;;6.50;;
40755;SDS011;26461;45.630;9.418;2022-12-18T08:14:34;8.07;;;7.68;;
40755;SDS011;26461;45.630;9.418;2022-12-18T08:17:44;12.88;;;6.50;;
40755;SDS011;26461;45.630;9.418;2022-12-18T08:20:54;17.70;;;12.18;;
40755;SDS011;26461;45.630;9.418;2022-12-18T08:24:04;29.83;;;13.80;;
40755;SDS011;26461;45.630;9.418;2022-12-18T08:27:12;13.32;;;8.95;;
40755;SDS011;26461;45.630;9.418;2022-12-18T08:30:25;14.15;;;11.05;;
40755;SDS011;26461;45.630;9.418;2022-12-18T08:33:36;11.43;;;8.82;;
40755;SDS011;26461;45.630;9.418;2022-12-18T08:36:41;13.85;;;7.78;;
40755;SDS011;26461;45.630;9.418;2022-12-18T08:39:51;22.08;;;8.85;;
40755;SDS011;26461;45.630;9.418;2022-12-18T08:42:56;13.90;;;8.85;;
40755;SDS011;26461;45.630;9.418;2022-12-18T08:46:20;18.45;;;11.25;;
40755;SDS011;26461;45.630;9.418;2022-12-18T08:49:26;11.30;;;10.70;;
40755;SDS011;26461;45.630;9.418;2022-12-18T08:52:31;15.45;;;9.88;;
40755;SDS011;26461;45.630;9.418;2022-12-18T08:55:41;9.45;;;8.95;;
40755;SDS011;26461;45.630;9.418;2022-12-18T08:58:46;9.20;;;8.40;;
40755;SDS011;26461;45.630;9.418;2022-12-18T09:01:56;13.27;;;6.20;;
40755;SDS011;26461;45.630;9.418;2022-12-18T09:05:01;9.55;;;7.00;;
40755;SDS011;26461;45.630;9.418;2022-12-18T09:08:11;17.60;;;8.48;;
40755;SDS011;26461;45.630;9.418;2022-12-18T09:11:23;15.07;;;9.48;;
40755;SDS011;26461;45.630;9.418;2022-12-18T09:14:35;28.33;;;12.18;;
40755;SDS011;26461;45.630;9.418;2022-12-18T09:17:45;18.23;;;10.55;;
40755;SDS011;26461;45.630;9.418;2022-12-18T09:20:55;22.25;;;9.15;;
40755;SDS011;26461;45.630;9.418;2022-12-18T09:24:06;32.80;;;12.20;;
40755;SDS011;26461;45.630;9.418;2022-12-18T09:27:21;13.32;;;9.05;;
40755;SDS011;26461;45.630;9.418;2022-12-18T09:30:31;19.05;;;11.38;;
40755;SDS011;26461;45.630;9.418;2022-12-18T09:33:43;34.80;;;15.82;;
40755;SDS011;26461;45.630;9.418;2022-12-18T09:36:54;21.38;;;7.97;;
40755;SDS011;26461;45.630;9.418;2022-12-18T09:40:04;18.85;;;9.73;;
40755;SDS011;26461;45.630;9.418;2022-12-18T09:43:19;15.40;;;10.85;;
40755;SDS011;26461;45.630;9.418;2022-12-18T09:46:35;9.30;;;8.43;;
40755;SDS011;26461;45.630;9.418;2022-12-18T09:49:55;15.18;;;8.35;;
40755;SDS011;26461;45.630;9.418;2022-12-18T09:53:15;11.57;;;8.90;;
40755;SDS011;26461;45.630;9.418;2022-12-18T09:56:35;8.75;;;7.65;;
40755;SDS011;26461;45.630;9.418;2022-12-18T09:59:51;13.55;;;8.55;;
40755;SDS011;26461;45.630;9.418;2022-12-18T10:03:14;18.98;;;11.07;;
40755;SDS011;26461;45.630;9.418;2022-12-18T10:16:43;8.27;;;7.30;;
40755;SDS011;26461;45.630;9.418;2022-12-18T10:20:01;14.20;;;6.07;;
40755;SDS011;26461;45.630;9.418;2022-12-18T10:27:09;19.27;;;8.13;;
40755;SDS011;26461;45.630;9.418;2022-12-18T10:30:21;15.27;;;7.95;;
40755;SDS011;26461;45.630;9.418;2022-12-18T10:33:33;9.10;;;4.05;;
40755;SDS011;26461;45.630;9.418;2022-12-18T10:36:43;4.95;;;2.85;;
40755;SDS011;26461;45.630;9.418;2022-12-18T10:40:09;7.93;;;4.38;;
40755;SDS011;26461;45.630;9.418;2022-12-18T10:43:25;14.23;;;7.47;;
40755;SDS011;26461;45.630;9.418;2022-12-18T10:46:40;8.85;;;4.57;;
40755;SDS011;26461;45.630;9.418;2022-12-18T10:49:51;12.00;;;7.65;;
40755;SDS011;26461;45.630;9.418;2022-12-18T10:53:04;13.23;;;6.30;;
40755;SDS011;26461;45.630;9.418;2022-12-18T10:56:14;9.57;;;7.78;;
40755;SDS011;26461;45.630;9.418;2022-12-18T10:59:29;9.73;;;8.88;;
40755;SDS011;26461;45.630;9.418;2022-12-18T11:03:07;26.20;;;8.63;;
40755;SDS011;26461;45.630;9.418;2022-12-18T11:06:52;15.98;;;9.23;;
40755;SDS011;26461;45.630;9.418;2022-12-18T11:10:14;12.52;;;8.98;;
40755;SDS011;26461;45.630;9.418;2022-12-18T11:13:33;14.65;;;5.95;;
40755;SDS011;26461;45.630;9.418;2022-12-18T11:16:44;10.13;;;4.57;;
40755;SDS011;26461;45.630;9.418;2022-12-18T11:19:58;22.15;;;7.90;;
40755;SDS011;26461;45.630;9.418;2022-12-18T11:23:11;16.60;;;5.95;;
40755;SDS011;26461;45.630;9.418;2022-12-18T11:26:22;14.20;;;8.13;;
40755;SDS011;26461;45.630;9.418;2022-12-18T11:29:43;24.35;;;12.52;;
40755;SDS011;26461;45.630;9.418;2022-12-18T11:36:15;20.30;;;14.07;;
40755;SDS011;26461;45.630;9.418;2022-12-18T11:39:41;31.23;;;16.17;;
40755;SDS011;26461;45.630;9.418;2022-12-18T11:46:13;27.60;;;15.07;;
40755;SDS011;26461;45.630;9.418;2022-12-18T11:49:28;20.77;;;12.05;;
40755;SDS011;26461;45.630;9.418;2022-12-18T11:52:42;29.67;;;15.50;;
40755;SDS011;26461;45.630;9.418;2022-12-18T11:56:04;28.60;;;16.65;;
40755;SDS011;26461;45.630;9.418;2022-12-18T12:03:38;36.85;;;16.25;;
40755;SDS011;26461;45.630;9.418;2022-12-18T12:10:50;23.40;;;14.35;;
40755;SDS011;26461;45.630;9.418;2022-12-18T12:14:30;32.03;;;16.98;;
40755;SDS011;26461;45.630;9.418;2022-12-18T12:21:40;35.53;;;16.80;;
40755;SDS011;26461;45.630;9.418;2022-12-18T12:38:50;22.25;;;12.73;;
40755;SDS011;26461;45.630;9.418;2022-12-18T12:42:05;24.90;;;14.73;;
40755;SDS011;26461;45.630;9.418;2022-12-18T12:46:06;22.08;;;11.88;;
40755;SDS011;26461;45.630;9.418;2022-12-18T12:49:19;19.15;;;10.02;;
40755;SDS011;26461;45.630;9.418;2022-12-18T12:52:32;23.00;;;11.43;;
40755;SDS011;26461;45.630;9.418;2022-12-18T12:55:43;16.80;;;13.98;;
40755;SDS011;26461;45.630;9.418;2022-12-18T13:05:54;14.73;;;11.90;;
40755;SDS011;26461;45.630;9.418;2022-12-18T13:09:14;20.50;;;13.98;;
40755;SDS011;26461;45.630;9.418;2022-12-18T13:12:24;15.15;;;10.55;;
40755;SDS011;26461;45.630;9.418;2022-12-18T13:16:05;16.92;;;13.20;;
40755;SDS011;26461;45.630;9.418;2022-12-18T13:19:20;14.90;;;10.02;;
40755;SDS011;26461;45.630;9.418;2022-12-18T13:22:41;26.73;;;15.13;;
40755;SDS011;26461;45.630;9.418;2022-12-18T13:25:57;27.45;;;17.13;;
40755;SDS011;26461;45.630;9.418;2022-12-18T13:32:47;26.02;;;14.50;;
40755;SDS011;26461;45.630;9.418;2022-12-18T13:42:34;22.02;;;12.68;;
40755;SDS011;26461;45.630;9.418;2022-12-18T13:49:53;28.30;;;15.43;;
40755;SDS011;26461;45.630;9.418;2022-12-18T13:53:12;30.48;;;15.15;;
40755;SDS011;26461;45.630;9.418;2022-12-18T13:56:31;23.77;;;14.52;;
40755;SDS011;26461;45.630;9.418;2022-12-18T13:59:43;26.00;;;13.48;;
40755;SDS011;26461;45.630;9.418;2022-12-18T14:02:48;48.08;;;20.77;;
40755;SDS011;26461;45.630;9.418;2022-12-18T14:06:01;21.83;;;14.40;;
40755;SDS011;26461;45.630;9.418;2022-12-18T14:09:15;23.73;;;15.35;;
40755;SDS011;26461;45.630;9.418;2022-12-18T14:12:28;37.38;;;19.52;;
40755;SDS011;26461;45.630;9.418;2022-12-18T14:16:01;29.65;;;14.80;;
40755;SDS011;26461;45.630;9.418;2022-12-18T14:19:14;37.45;;;19.02;;
40755;SDS011;26461;45.630;9.418;2022-12-18T14:22:26;24.10;;;16.80;;
40755;SDS011;26461;45.630;9.418;2022-12-18T14:25:39;23.25;;;19.25;;
40755;SDS011;26461;45.630;9.418;2022-12-18T14:28:56;24.95;;;14.10;;
40755;SDS011;26461;45.630;9.418;2022-12-18T14:32:14;34.05;;;15.43;;
40755;SDS011;26461;45.630;9.418;2022-12-18T14:35:26;19.23;;;14.20;;
40755;SDS011;26461;45.630;9.418;2022-12-18T14:38:37;35.70;;;19.85;;
40755;SDS011;26461;45.630;9.418;2022-12-18T14:41:51;26.55;;;14.75;;
40755;SDS011;26461;45.630;9.418;2022-12-18T14:48:44;30.35;;;15.45;;
40755;SDS011;26461;45.630;9.418;2022-12-18T14:55:18;25.35;;;14.75;;
40755;SDS011;26461;45.630;9.418;2022-12-18T14:58:29;22.88;;;15.43;;
40755;SDS011;26461;45.630;9.418;2022-12-18T15:01:44;27.05;;;17.20;;
40755;SDS011;26461;45.630;9.418;2022-12-18T15:08:40;17.70;;;12.93;;
40755;SDS011;26461;45.630;9.418;2022-12-18T15:11:54;24.90;;;12.80;;
40755;SDS011;26461;45.630;9.418;2022-12-18T15:15:43;22.65;;;12.40;;
40755;SDS011;26461;45.630;9.418;2022-12-18T15:18:51;27.20;;;16.35;;
40755;SDS011;26461;45.630;9.418;2022-12-18T15:22:02;14.43;;;12.63;;
40755;SDS011;26461;45.630;9.418;2022-12-18T15:25:21;20.55;;;12.95;;
40755;SDS011;26461;45.630;9.418;2022-12-18T15:28:48;17.95;;;13.75;;
40755;SDS011;26461;45.630;9.418;2022-12-18T15:32:15;35.92;;;20.35;;
40755;SDS011;26461;45.630;9.418;2022-12-18T15:35:29;15.80;;;12.98;;
40755;SDS011;26461;45.630;9.418;2022-12-18T15:38:39;31.50;;;16.33;;
40755;SDS011;26461;45.630;9.418;2022-12-18T15:41:50;22.98;;;13.15;;
40755;SDS011;26461;45.630;9.418;2022-12-18T15:45:18;22.73;;;12.82;;
40755;SDS011;26461;45.630;9.418;2022-12-18T15:48:28;21.48;;;14.98;;
40755;SDS011;26461;45.630;9.418;2022-12-18T15:51:39;32.15;;;15.70;;
40755;SDS011;26461;45.630;9.418;2022-12-18T15:54:49;19.08;;;16.98;;
40755;SDS011;26461;45.630;9.418;2022-12-18T15:58:17;27.73;;;12.30;;
40755;SDS011;26461;45.630;9.418;2022-12-18T16:01:30;26.55;;;15.30;;
40755;SDS011;26461;45.630;9.418;2022-12-18T16:04:41;22.05;;;16.13;;
40755;SDS011;26461;45.630;9.418;2022-12-18T16:07:51;23.20;;;14.48;;
40755;SDS011;26461;45.630;9.418;2022-12-18T16:11:01;19.38;;;13.35;;
40755;SDS011;26461;45.630;9.418;2022-12-18T16:14:24;21.08;;;15.25;;
40755;SDS011;26461;45.630;9.418;2022-12-18T16:17:36;23.70;;;13.77;;
40755;SDS011;26461;45.630;9.418;2022-12-18T16:20:46;24.65;;;10.80;;
40755;SDS011;26461;45.630;9.418;2022-12-18T16:23:56;20.40;;;14.45;;
40755;SDS011;26461;45.630;9.418;2022-12-18T16:27:06;31.15;;;14.88;;
40755;SDS011;26461;45.630;9.418;2022-12-18T16:30:17;25.83;;;13.88;;
40755;SDS011;26461;45.630;9.418;2022-12-18T16:33:29;31.88;;;11.52;;
40755;SDS011;26461;45.630;9.418;2022-12-18T16:36:39;29.63;;;14.20;;
40755;SDS011;26461;45.630;9.418;2022-12-18T16:39:51;27.30;;;15.57;;
40755;SDS011;26461;45.630;9.418;2022-12-18T16:43:02;22.92;;;16.25;;
40755;SDS011;26461;45.630;9.418;2022-12-18T16:46:14;24.67;;;14.68;;
40755;SDS011;26461;45.630;9.418;2022-12-18T16:49:26;18.25;;;11.95;;
40755;SDS011;26461;45.630;9.418;2022-12-18T16:52:38;18.75;;;13.80;;
40755;SDS011;26461;45.630;9.418;2022-12-18T16:55:53;24.67;;;12.40;;
40755;SDS011;26461;45.630;9.418;2022-12-18T16:59:06;27.58;;;15.25;;
40755;SDS011;26461;45.630;9.418;2022-12-18T17:02:18;28.25;;;12.68;;
40755;SDS011;26461;45.630;9.418;2022-12-18T17:05:34;18.08;;;9.88;;
40755;SDS011;26461;45.630;9.418;2022-12-18T17:08:46;27.35;;;18.00;;
40755;SDS011;26461;45.630;9.418;2022-12-18T17:11:56;22.00;;;16.27;;
40755;SDS011;26461;45.630;9.418;2022-12-18T17:15:06;23.10;;;15.48;;
40755;SDS011;26461;45.630;9.418;2022-12-18T17:18:17;37.58;;;15.85;;
40755;SDS011;26461;45.630;9.418;2022-12-18T17:21:31;32.75;;;19.63;;
40755;SDS011;26461;45.630;9.418;2022-12-18T17:24:46;26.08;;;15.95;;
40755;SDS011;26461;45.630;9.418;2022-12-18T17:28:00;23.92;;;17.35;;
40755;SDS011;26461;45.630;9.418;2022-12-18T17:31:12;24.23;;;16.48;;
40755;SDS011;26461;45.630;9.418;2022-12-18T17:34:27;28.40;;;16.75;;
40755;SDS011;26461;45.630;9.418;2022-12-18T17:37:38;55.38;;;18.63;;
40755;SDS011;26461;45.630;9.418;2022-12-18T17:44:23;28.80;;;15.48;;
40755;SDS011;26461;45.630;9.418;2022-12-18T17:51:11;19.25;;;15.55;;
40755;SDS011;26461;45.630;9.418;2022-12-18T17:54:22;31.17;;;17.17;;
40755;SDS011;26461;45.630;9.418;2022-12-18T17:57:32;21.95;;;16.13;;
40755;SDS011;26461;45.630;9.418;2022-12-18T18:00:45;23.38;;;13.82;;
40755;SDS011;26461;45.630;9.418;2022-12-18T18:03:59;27.42;;;15.43;;
40755;SDS011;26461;45.630;9.418;2022-12-18T18:07:06;26.58;;;15.25;;
40755;SDS011;26461;45.630;9.418;2022-12-18T18:10:16;29.83;;;15.40;;
40755;SDS011;26461;45.630;9.418;2022-12-18T18:13:31;21.10;;;14.57;;
40755;SDS011;26461;45.630;9.418;2022-12-18T18:17:19;21.85;;;15.68;;
40755;SDS011;26461;45.630;9.418;2022-12-18T18:20:29;29.45;;;18.52;;
40755;SDS011;26461;45.630;9.418;2022-12-18T18:23:43;28.00;;;17.95;;
40755;SDS011;26461;45.630;9.418;2022-12-18T18:26:56;20.95;;;13.30;;
40755;SDS011;26461;45.630;9.418;2022-12-18T18:30:03;19.60;;;13.38;;
40755;SDS011;26461;45.630;9.418;2022-12-18T18:33:13;48.10;;;16.40;;
40755;SDS011;26461;45.630;9.418;2022-12-18T18:36:22;46.90;;;16.88;;
40755;SDS011;26461;45.630;9.418;2022-12-18T18:39:27;38.90;;;19.98;;
40755;SDS011;26461;45.630;9.418;2022-12-18T18:42:33;24.63;;;14.88;;
40755;SDS011;26461;45.630;9.418;2022-12-18T18:45:43;30.35;;;15.68;;
40755;SDS011;26461;45.630;9.418;2022-12-18T18:52:30;21.75;;;15.35;;
40755;SDS011;26461;45.630;9.418;2022-12-18T18:55:40;24.73;;;16.73;;
40755;SDS011;26461;45.630;9.418;2022-12-18T18:58:50;24.17;;;11.70;;
40755;SDS011;26461;45.630;9.418;2022-12-18T19:02:01;21.90;;;10.80;;
40755;SDS011;26461;45.630;9.418;2022-12-18T19:05:10;27.90;;;15.15;;
40755;SDS011;26461;45.630;9.418;2022-12-18T19:08:22;24.10;;;16.30;;
40755;SDS011;26461;45.630;9.418;2022-12-18T19:11:32;27.38;;;16.38;;
40755;SDS011;26461;45.630;9.418;2022-12-18T19:15:01;26.10;;;12.75;;
40755;SDS011;26461;45.630;9.418;2022-12-18T19:18:11;20.55;;;11.50;;
40755;SDS011;26461;45.630;9.418;2022-12-18T19:21:22;25.67;;;14.90;;
40755;SDS011;26461;45.630;9.418;2022-12-18T19:24:32;23.60;;;16.05;;
40755;SDS011;26461;45.630;9.418;2022-12-18T19:27:43;19.58;;;13.13;;
40755;SDS011;26461;45.630;9.418;2022-12-18T19:30:54;19.17;;;13.77;;
40755;SDS011;26461;45.630;9.418;2022-12-18T19:34:08;23.42;;;12.38;;
40755;SDS011;26461;45.630;9.418;2022-12-18T19:37:20;18.75;;;15.82;;
40755;SDS011;26461;45.630;9.418;2022-12-18T19:40:34;23.17;;;12.45;;
40755;SDS011;26461;45.630;9.418;2022-12-18T19:43:50;24.90;;;17.08;;
40755;SDS011;26461;45.630;9.418;2022-12-18T19:47:02;25.17;;;16.02;;
40755;SDS011;26461;45.630;9.418;2022-12-18T19:50:12;32.60;;;25.00;;
40755;SDS011;26461;45.630;9.418;2022-12-18T19:53:23;30.13;;;19.13;;
40755;SDS011;26461;45.630;9.418;2022-12-18T19:56:34;35.90;;;20.50;;
40755;SDS011;26461;45.630;9.418;2022-12-18T19:59:45;20.38;;;15.40;;
40755;SDS011;26461;45.630;9.418;2022-12-18T20:02:55;24.48;;;16.73;;
40755;SDS011;26461;45.630;9.418;2022-12-18T20:06:18;21.77;;;15.40;;
40755;SDS011;26461;45.630;9.418;2022-12-18T20:09:38;27.05;;;15.23;;
40755;SDS011;26461;45.630;9.418;2022-12-18T20:12:48;26.17;;;16.17;;
40755;SDS011;26461;45.630;9.418;2022-12-18T20:15:58;29.45;;;15.40;;
40755;SDS011;26461;45.630;9.418;2022-12-18T20:19:09;24.42;;;19.35;;
40755;SDS011;26461;45.630;9.418;2022-12-18T20:22:21;18.00;;;11.25;;
40755;SDS011;26461;45.630;9.418;2022-12-18T20:25:30;25.83;;;14.63;;
40755;SDS011;26461;45.630;9.418;2022-12-18T20:28:41;23.88;;;13.27;;
40755;SDS011;26461;45.630;9.418;2022-12-18T20:31:52;21.95;;;13.55;;
40755;SDS011;26461;45.630;9.418;2022-12-18T20:35:02;20.98;;;11.70;;
40755;SDS011;26461;45.630;9.418;2022-12-18T20:38:12;29.77;;;17.35;;
40755;SDS011;26461;45.630;9.418;2022-12-18T20:41:19;19.70;;;13.35;;
40755;SDS011;26461;45.630;9.418;2022-12-18T20:44:30;23.60;;;14.98;;
40755;SDS011;26461;45.630;9.418;2022-12-18T20:47:43;21.20;;;13.85;;
40755;SDS011;26461;45.630;9.418;2022-12-18T20:50:58;20.95;;;15.25;;